Time;durP1;ratioP1;P1;durP2;ratioP2;P2;SDS_P1;SDS_P2;PMS_P1;PMS_P2;Temp;Humidity;BMP_temperature;BMP_pressure;BME280_temperature;BME280_humidity;BME280_pressure;Samples;Min_cycle;Max_cycle;Signal;HPM_P1;HPM_P2
2021/06/16 00:02:19;;;;;;;13.48;7.05;;;;;;;17.12;100.00;100427.48;1632003;88;21604;-90
2021/06/16 00:04:45;;;;;;;19.73;7.28;;;;;;;17.11;100.00;100425.84;1631771;88;21138;-89
2021/06/16 00:07:12;;;;;;;15.38;7.22;;;;;;;17.10;100.00;100430.25;1631736;88;21254;-88
2021/06/16 00:09:38;;;;;;;18.20;7.70;;;;;;;17.07;100.00;100427.59;1631883;88;21075;-89
2021/06/16 00:12:05;;;;;;;17.80;7.85;;;;;;;17.05;100.00;100420.83;1631246;88;20997;-90
2021/06/16 00:14:30;;;;;;;21.95;7.17;;;;;;;17.07;100.00;100431.67;1631903;88;21156;-89
2021/06/16 00:17:03;;;;;;;12.33;6.97;;;;;;;17.06;100.00;100422.43;1630946;88;20958;-89
2021/06/16 00:19:29;;;;;;;15.95;7.03;;;;;;;17.05;100.00;100421.62;1631861;88;21046;-89
2021/06/16 00:21:55;;;;;;;16.75;7.10;;;;;;;17.05;100.00;100427.08;1590704;87;21609;-89
2021/06/16 00:24:21;;;;;;;15.72;7.42;;;;;;;17.07;100.00;100434.39;1576678;89;21582;-89
2021/06/16 00:26:48;;;;;;;12.75;7.05;;;;;;;17.08;100.00;100436.55;1601609;89;21151;-89
2021/06/16 00:29:26;;;;;;;17.92;7.60;;;;;;;17.06;100.00;100436.87;1601404;89;21125;-89
2021/06/16 00:31:53;;;;;;;15.38;7.35;;;;;;;17.07;100.00;100439.03;1601461;89;21035;-90
2021/06/16 00:34:19;;;;;;;18.50;7.35;;;;;;;17.07;100.00;100439.03;1601264;89;21134;-90
2021/06/16 00:36:45;;;;;;;16.80;7.40;;;;;;;17.05;100.00;100441.25;1601383;89;21526;-89
2021/06/16 00:39:11;;;;;;;13.38;7.67;;;;;;;17.05;100.00;100439.33;1623707;87;21055;-89
2021/06/16 00:41:50;;;;;;;14.20;7.12;;;;;;;17.05;100.00;100438.53;1635110;86;21039;-89
2021/06/16 00:44:16;;;;;;;14.83;6.97;;;;;;;17.05;100.00;100438.53;1635056;87;21007;-90
2021/06/16 00:46:42;;;;;;;16.95;6.80;;;;;;;17.06;100.00;100434.69;1634841;87;21890;-90
2021/06/16 00:49:08;;;;;;;31.52;7.87;;;;;;;17.06;100.00;100439.59;1634877;87;20891;-89
2021/06/16 00:51:34;;;;;;;18.80;7.83;;;;;;;17.09;100.00;100439.52;1634962;87;21023;-90
2021/06/16 00:54:00;;;;;;;16.05;7.10;;;;;;;17.08;100.00;100435.99;1635032;86;20962;-90
2021/06/16 00:56:25;;;;;;;16.90;6.55;;;;;;;17.07;100.00;100437.11;1635092;87;20900;-91
2021/06/16 00:58:52;;;;;;;17.90;7.33;;;;;;;17.07;100.00;100438.47;1634889;87;21099;-90
2021/06/16 01:01:24;;;;;;;12.80;6.87;;;;;;;17.07;100.00;100436.31;1634717;87;21510;-89
2021/06/16 01:04:22;;;;;;;14.30;7.03;;;;;;;17.04;100.00;100430.92;1635173;87;21165;-90
2021/06/16 01:06:53;;;;;;;13.28;6.47;;;;;;;17.02;100.00;100432.58;1634981;87;21630;-90
2021/06/16 01:09:36;;;;;;;18.30;6.42;;;;;;;16.99;100.00;100434.55;1635018;87;20991;-89
2021/06/16 01:12:06;;;;;;;;;;;;;;;16.98;100.00;100434.31;1635463;87;21984;-90
2021/06/16 01:14:37;;;;;;;16.05;7.05;;;;;;;16.98;100.00;100436.23;1634948;87;20193;-90
2021/06/16 01:17:07;;;;;;;12.82;6.58;;;;;;;16.96;100.00;100436.53;1598313;89;21046;-90
2021/06/16 01:19:59;;;;;;;16.82;6.50;;;;;;;16.96;100.00;100435.73;1601570;89;21208;-90
2021/06/16 01:22:55;;;;;;;11.15;5.92;;;;;;;16.92;100.00;100428.73;1629404;87;21030;-89
2021/06/16 01:25:58;;;;;;;12.00;5.55;;;;;;;16.92;100.00;100420.57;1637279;87;21046;-90
2021/06/16 01:28:29;;;;;;;16.77;5.33;;;;;;;16.92;100.00;100427.94;1634281;87;21099;-89
2021/06/16 01:30:57;;;;;;;11.60;5.20;;;;;;;16.89;100.00;100419.82;1631132;87;21098;-88
2021/06/16 01:33:23;;;;;;;12.98;5.62;;;;;;;16.88;100.00;100428.28;1634070;87;21047;-89
2021/06/16 01:35:52;;;;;;;13.18;5.53;;;;;;;16.87;100.00;100422.59;1634052;87;20972;-89
2021/06/16 01:38:21;;;;;;;13.20;5.92;;;;;;;16.87;100.00;100429.40;1634144;87;21147;-89
2021/06/16 01:40:52;;;;;;;16.07;5.75;;;;;;;16.86;100.00;100434.61;1633902;87;21121;-89
2021/06/16 01:43:19;;;;;;;14.70;6.20;;;;;;;16.82;100.00;100440.39;1634536;87;21629;-89
2021/06/16 01:45:47;;;;;;;13.72;5.92;;;;;;;16.82;100.00;100437.11;1612285;87;21057;-89
2021/06/16 01:48:23;;;;;;;16.15;5.55;;;;;;;16.84;100.00;100432.73;1634120;87;21026;-88
2021/06/16 01:50:52;;;;;;;12.53;5.90;;;;;;;16.83;100.00;100434.66;1634013;87;21085;-90
2021/06/16 01:53:20;;;;;;;10.48;5.60;;;;;;;16.83;100.00;100434.66;1633712;87;21538;-89
2021/06/16 01:55:48;;;;;;;18.00;5.60;;;;;;;16.68;100.00;100419.44;1634036;87;21617;-89
2021/06/16 01:58:17;;;;;;;12.60;6.03;;;;;;;16.68;100.00;100419.44;1624867;87;21050;-89
2021/06/16 02:00:44;;;;;;;10.28;5.35;;;;;;;16.80;100.00;100431.98;1640280;87;21086;-89
2021/06/16 02:03:11;;;;;;;12.75;5.30;;;;;;;16.82;100.00;100425.42;1640296;87;21112;-88
2021/06/16 02:05:37;;;;;;;14.87;5.42;;;;;;;16.71;100.00;100412.02;1640191;87;21079;-90
2021/06/16 02:08:14;;;;;;;13.15;5.20;;;;;;;16.83;100.00;100427.85;1640364;87;21848;-90
2021/06/16 02:10:52;;;;;;;14.98;5.85;;;;;;;16.89;100.00;100433.99;1637862;87;21078;-90
2021/06/16 02:13:29;;;;;;;16.48;5.37;;;;;;;16.78;100.00;100408.91;1647782;86;21596;-90
2021/06/16 02:16:12;;;;;;;15.78;5.97;;;;;;;16.94;100.00;100429.77;1667805;85;21917;-90
2021/06/16 02:19:02;;;;;;;12.75;5.60;;;;;;;16.97;100.00;100439.52;1655809;86;21134;-90
2021/06/16 02:21:29;;;;;;;13.48;5.20;;;;;;;16.99;100.00;100435.91;1629760;86;21544;-90
2021/06/16 02:23:54;;;;;;;9.60;5.53;;;;;;;17.05;100.00;100427.08;1618047;88;21107;-90
2021/06/16 02:26:21;;;;;;;14.95;5.55;;;;;;;17.11;100.00;100435.38;1618218;88;20911;-90
2021/06/16 02:28:47;;;;;;;12.43;5.60;;;;;;;17.11;100.00;100418.23;1617768;88;21969;-90
2021/06/16 02:31:13;;;;;;;9.40;5.05;;;;;;;17.11;100.00;100418.23;1618174;88;21038;-90
2021/06/16 02:33:51;;;;;;;11.38;5.22;;;;;;;17.16;100.00;100429.82;1618184;88;21098;-90
2021/06/16 02:36:20;;;;;;;13.62;5.80;;;;;;;17.33;100.00;100448.78;1618194;88;21046;-90
2021/06/16 02:38:49;;;;;;;23.80;7.10;;;;;;;17.38;100.00;100454.09;1618092;88;21093;-90
2021/06/16 02:41:17;;;;;;;18.32;6.05;;;;;;;17.41;100.00;100463.02;1614810;87;21088;-89
2021/06/16 02:43:43;;;;;;;12.60;5.72;;;;;;;17.42;100.00;100470.89;1618085;88;21010;-89
2021/06/16 02:46:12;;;;;;;11.45;5.15;;;;;;;17.43;100.00;100477.14;1618121;88;21046;-90
2021/06/16 02:48:42;;;;;;;12.23;5.20;;;;;;;17.46;100.00;100479.24;1618114;88;21081;-90
2021/06/16 02:51:20;;;;;;;13.78;5.35;;;;;;;17.51;100.00;100490.59;1541100;93;21062;-90
2021/06/16 02:53:48;;;;;;;11.22;5.10;;;;;;;17.57;100.00;100496.97;1541202;92;21116;-89
2021/06/16 02:56:16;;;;;;;12.43;5.67;;;;;;;17.64;100.00;100482.91;1541142;93;21089;-90
2021/06/16 02:58:47;;;;;;;11.75;5.37;;;;;;;17.69;100.00;100478.70;1540527;93;21075;-90
2021/06/16 03:01:19;;;;;;;14.50;5.67;;;;;;;17.75;100.00;100482.10;1540441;92;21105;-90
2021/06/16 03:03:51;;;;;;;11.12;5.72;;;;;;;17.79;100.00;100486.64;1544891;91;21032;-90
2021/06/16 03:06:21;;;;;;;15.28;5.70;;;;;;;17.87;100.00;100486.45;1551266;92;21033;-90
2021/06/16 03:08:49;;;;;;;13.53;5.87;;;;;;;17.93;100.00;100477.83;1551456;92;21020;-91
2021/06/16 03:11:17;;;;;;;18.17;6.40;;;;;;;17.97;100.00;100477.20;1551488;91;21031;-91
2021/06/16 03:13:45;;;;;;;16.27;5.97;;;;;;;18.02;100.00;100476.52;1551045;92;21117;-91
2021/06/16 03:16:14;;;;;;;14.38;5.65;;;;;;;18.06;100.00;100470.70;1548473;92;21063;-91
2021/06/16 03:18:42;;;;;;;11.12;5.15;;;;;;;18.15;100.00;100462.56;1551642;92;21117;-91
2021/06/16 03:21:08;;;;;;;14.47;5.05;;;;;;;18.23;100.00;100459.05;1551466;90;21180;-92
2021/06/16 03:23:35;;;;;;;14.35;5.75;;;;;;;18.29;100.00;100454.26;1549467;91;21144;-91
2021/06/16 03:26:02;;;;;;;11.63;5.60;;;;;;;18.34;100.00;100459.58;1549229;92;21098;-91
2021/06/16 03:28:29;;;;;;;15.95;5.62;;;;;;;18.41;100.00;100457.75;1548892;92;21107;-92
2021/06/16 03:31:00;;;;;;;19.77;5.92;;;;;;;18.48;100.00;100464.37;1526108;91;21951;-91
2021/06/16 03:33:27;;;;;;;8.95;4.78;;;;;;;18.57;100.00;100485.67;1548823;92;21700;-91
2021/06/16 03:36:21;;;;;;;11.03;5.22;;;;;;;18.61;100.00;100483.91;1545703;92;21050;-91
2021/06/16 03:38:49;;;;;;;;;;;;;;;18.70;100.00;100490.76;1551303;92;21022;-91
2021/06/16 03:41:16;;;;;;;11.55;4.87;;;;;;;18.75;100.00;100480.30;1549000;92;20164;-91
2021/06/16 03:43:50;;;;;;;13.43;4.90;;;;;;;18.77;100.00;100479.42;1548852;92;21764;-91
2021/06/16 03:46:19;;;;;;;10.43;4.15;;;;;;;18.81;100.00;100492.11;1548864;91;21113;-91
2021/06/16 05:07:32;;;;;;;8.30;3.10;;;;;;;21.48;100.00;100514.77;1663166;85;21541;-90
2021/06/16 05:09:58;;;;;;;5.92;3.20;;;;;;;21.43;100.00;100516.34;1667907;84;21593;-90
2021/06/16 05:12:24;;;;;;;8.80;3.75;;;;;;;21.43;100.00;100524.56;1664511;86;21538;-90
2021/06/16 05:14:50;;;;;;;5.95;3.20;;;;;;;21.38;100.00;100520.65;1664444;86;21008;-89
2021/06/16 05:17:19;;;;;;;11.48;3.85;;;;;;;21.51;100.00;100521.53;1664385;86;21046;-89
2021/06/16 05:19:45;;;;;;;11.03;4.20;;;;;;;21.68;100.00;100521.39;1664300;86;21053;-89
2021/06/16 05:22:14;;;;;;;6.08;3.87;;;;;;;21.77;100.00;100527.59;1664365;86;21082;-90
2021/06/16 05:24:41;;;;;;;6.15;4.05;;;;;;;21.95;100.00;100527.43;1664453;86;21031;-89
2021/06/16 05:27:08;;;;;;;8.23;3.67;;;;;;;22.15;100.00;100534.81;1664373;86;21170;-90
2021/06/16 05:29:47;;;;;;;9.50;3.50;;;;;;;22.37;100.00;100536.94;1664377;86;21896;-91
2021/06/16 05:32:13;;;;;;;8.33;3.95;;;;;;;22.74;100.00;100543.27;1664135;86;21118;-89
2021/06/16 05:34:40;;;;;;;8.13;4.17;;;;;;;23.24;100.00;100539.94;1664562;86;20979;-90
2021/06/16 05:37:07;;;;;;;7.62;4.08;;;;;;;23.62;100.00;100542.79;1665877;86;21602;-88
2021/06/16 05:39:34;;;;;;;11.15;5.55;;;;;;;23.70;100.00;100539.92;1664146;86;21542;-90
2021/06/16 05:42:03;;;;;;;12.85;6.62;;;;;;;23.70;100.00;100536.38;1664373;86;21080;-89
2021/06/16 05:44:29;;;;;;;16.48;7.78;;;;;;;23.62;100.00;100540.03;1664376;86;20975;-89
2021/06/16 05:46:55;;;;;;;20.77;8.08;;;;;;;23.50;100.00;100540.33;1664409;86;21056;-91
2021/06/16 05:49:21;;;;;;;16.95;7.45;;;;;;;23.51;100.00;100539.75;1664464;86;20849;-90
2021/06/16 05:51:47;;;;;;;14.25;7.47;;;;;;;23.47;100.00;100545.70;1664492;86;21477;-90
2021/06/16 05:54:13;;;;;;;13.35;6.28;;;;;;;23.44;100.00;100551.91;1664469;86;21009;-90
2021/06/16 05:56:40;;;;;;;16.25;6.00;;;;;;;23.44;100.00;100552.73;1664414;86;21539;-90
2021/06/16 05:59:07;;;;;;;14.80;6.60;;;;;;;23.40;100.00;100558.68;1664323;86;21507;-89
2021/06/16 06:01:35;;;;;;;12.70;6.17;;;;;;;23.35;100.00;100563.03;1645198;86;21058;-90
2021/06/16 06:04:02;;;;;;;15.60;7.55;;;;;;;23.30;100.00;100567.42;1664179;86;21079;-88
2021/06/16 06:06:30;;;;;;;16.42;7.42;;;;;;;23.15;100.00;100563.44;1668104;84;21880;-89
2021/06/16 06:08:56;;;;;;;15.68;8.05;;;;;;;23.18;100.00;100568.24;1635802;87;21067;-89
2021/06/16 06:11:22;;;;;;;15.53;7.92;;;;;;;23.35;100.00;100575.41;1611922;88;21033;-90
2021/06/16 06:13:48;;;;;;;15.43;6.67;;;;;;;23.63;100.00;100573.30;1664309;85;20983;-90
2021/06/16 06:16:14;;;;;;;17.12;7.42;;;;;;;24.43;100.00;100578.70;1664402;84;20995;-89
2021/06/16 06:18:51;;;;;;;17.00;7.53;;;;;;;24.43;100.00;100577.33;1664447;86;21936;-88
2021/06/16 06:21:17;;;;;;;14.25;6.85;;;;;;;24.21;100.00;100585.59;1664254;86;21031;-90
2021/06/16 06:23:43;;;;;;;12.03;6.72;;;;;;;24.15;100.00;100593.06;1664340;86;21066;-91
2021/06/16 06:26:10;;;;;;;17.27;7.67;;;;;;;23.89;100.00;100600.42;1664224;85;21581;-91
2021/06/16 06:28:36;;;;;;;18.50;7.75;;;;;;;23.86;100.00;100596.42;1641762;86;21045;-87
2021/06/16 06:31:04;;;;;;;13.08;7.00;;;;;;;23.92;100.00;100599.72;1664037;86;22061;-88
2021/06/16 06:33:30;;;;;;;12.10;6.50;;;;;;;24.24;100.00;100594.52;1664285;86;21601;-87
2021/06/16 06:35:57;;;;;;;13.88;5.72;;;;;;;25.44;100.00;100592.16;1664308;86;21046;-86
2021/06/16 06:38:23;;;;;;;14.18;6.35;;;;;;;26.43;100.00;100588.43;1664301;86;21035;-86
2021/06/16 06:40:50;;;;;;;9.88;5.58;;;;;;;27.46;100.00;100589.30;1664114;86;21032;-86
2021/06/16 06:43:17;;;;;;;14.47;5.97;;;;;;;28.28;100.00;100588.12;1664196;86;21081;-86
2021/06/16 06:45:44;;;;;;;12.63;7.12;;;;;;;28.52;100.00;100581.25;1664012;86;21074;-86
2021/06/16 06:48:11;;;;;;;12.45;6.40;;;;;;;28.72;100.00;100573.50;1664138;86;21142;-87
2021/06/16 06:50:37;;;;;;;10.35;5.00;;;;;;;29.29;100.00;100575.89;1664309;86;21007;-87
2021/06/16 06:53:04;;;;;;;13.62;5.40;;;;;;;30.05;100.00;100586.16;1664110;86;21098;-88
2021/06/16 06:55:30;;;;;;;8.95;5.05;;;;;;;30.64;100.00;100578.31;1663807;86;21147;-87
2021/06/16 06:57:56;;;;;;;6.25;4.58;;;;;;;31.55;100.00;100575.61;1664265;86;21498;-90
2021/06/16 07:00:23;;;;;;;8.13;4.60;;;;;;;31.87;100.00;100574.08;1664051;86;21731;-87
2021/06/16 07:02:49;;;;;;;10.78;4.58;;;;;;;32.73;100.00;100581.29;1664021;86;21084;-87
2021/06/16 07:05:16;;;;;;;9.30;4.75;;;;;;;33.02;100.00;100580.45;1678084;83;20943;-88
2021/06/16 07:07:43;;;;;;;9.83;4.70;;;;;;;33.27;100.00;100574.41;1705518;83;21156;-88
2021/06/16 07:10:10;;;;;;;11.80;4.60;;;;;;;33.95;100.00;100583.39;1702794;84;21018;-88
2021/06/16 07:12:37;;;;;;;8.10;4.78;;;;;;;34.00;90.38;100578.70;1703041;83;21038;-88
2021/06/16 07:15:05;;;;;;;9.10;4.65;;;;;;;33.64;100.00;100583.38;1698363;84;21038;-88
2021/06/16 07:17:33;;;;;;;10.70;4.03;;;;;;;34.34;100.00;100576.63;1702917;84;21054;-86
2021/06/16 07:19:59;;;;;;;9.40;4.62;;;;;;;34.58;92.00;100570.45;1702830;84;22022;-86
2021/06/16 07:22:28;;;;;;;9.05;5.28;;;;;;;35.16;89.22;100573.67;1702966;84;21022;-88
2021/06/16 07:24:54;;;;;;;7.58;4.17;;;;;;;35.24;81.56;100579.33;1702623;84;21506;-87
2021/06/16 07:27:20;;;;;;;9.03;4.33;;;;;;;34.76;72.04;100588.97;1703052;84;21077;-87
2021/06/16 07:29:47;;;;;;;6.87;4.55;;;;;;;34.17;69.92;100584.68;1703093;84;20991;-88
2021/06/16 07:32:16;;;;;;;7.80;4.53;;;;;;;34.03;81.64;100591.84;1703046;84;21880;-87
2021/06/16 07:34:48;;;;;;;6.25;4.10;;;;;;;34.74;79.24;100588.59;1702749;84;21458;-83
2021/06/16 07:37:15;;;;;;;4.42;3.20;;;;;;;34.88;67.78;100588.96;1703087;84;21082;-83
2021/06/16 07:39:41;;;;;;;6.03;3.45;;;;;;;34.17;62.73;100598.67;1702974;82;21565;-83
2021/06/16 07:42:07;;;;;;;5.72;3.58;;;;;;;34.46;66.97;100597.63;1702982;84;20879;-84
2021/06/16 07:44:33;;;;;;;8.18;3.40;;;;;;;35.26;70.90;100599.28;1703007;84;21046;-83
2021/06/16 07:46:59;;;;;;;6.20;3.67;;;;;;;35.02;61.92;100598.52;1702876;84;21676;-84
2021/06/16 07:49:25;;;;;;;8.18;3.33;;;;;;;35.10;58.28;100590.19;1702763;84;21002;-84
2021/06/16 07:51:52;;;;;;;8.18;3.50;;;;;;;35.74;68.05;100569.92;1702897;84;21037;-83
2021/06/16 07:54:18;;;;;;;4.35;2.98;;;;;;;36.33;69.61;100564.77;1703048;84;20939;-84
2021/06/16 07:56:44;;;;;;;6.55;3.00;;;;;;;36.29;51.86;100574.48;1702951;84;21070;-84
2021/06/16 07:59:10;;;;;;;6.17;3.00;;;;;;;35.89;51.54;100585.82;1702911;84;21058;-83
2021/06/16 08:01:38;;;;;;;3.85;2.87;;;;;;;35.85;51.45;100584.47;1702974;84;20998;-83
2021/06/16 08:04:04;;;;;;;7.08;3.10;;;;;;;36.25;52.60;100591.42;1702541;84;20991;-85
2021/06/16 08:06:30;;;;;;;5.03;2.77;;;;;;;36.54;49.21;100603.41;1703751;82;21148;-84
2021/06/16 08:08:56;;;;;;;4.28;3.00;;;;;;;36.05;48.92;100598.48;1708483;84;21062;-84
2021/06/16 08:11:23;;;;;;;6.45;3.33;;;;;;;36.04;48.53;100599.73;1708278;84;20899;-84
2021/06/16 08:13:50;;;;;;;5.05;3.10;;;;;;;36.34;50.96;100602.05;1708394;84;21007;-84
2021/06/16 08:16:18;;;;;;;5.72;3.37;;;;;;;36.60;49.90;100610.07;1708350;83;21018;-85
2021/06/16 08:18:46;;;;;;;6.28;3.65;;;;;;;36.53;49.67;100608.23;1707949;84;20979;-83
2021/06/16 08:21:14;;;;;;;8.10;3.25;;;;;;;35.33;50.71;100608.16;1708275;83;21277;-84
2021/06/16 08:23:41;;;;;;;5.15;2.90;;;;;;;34.43;56.50;100615.27;1708005;84;21026;-83
2021/06/16 08:26:08;;;;;;;5.45;3.08;;;;;;;33.91;58.27;100611.38;1708371;84;21027;-84
2021/06/16 08:28:34;;;;;;;5.60;3.45;;;;;;;33.26;56.92;100604.34;1708307;84;20999;-84
2021/06/16 08:31:00;;;;;;;6.05;3.12;;;;;;;32.42;60.53;100604.66;1708264;84;21038;-84
2021/06/16 08:33:26;;;;;;;7.30;3.30;;;;;;;31.62;64.48;100604.25;1713948;83;21368;-84
2021/06/16 08:35:52;;;;;;;8.05;3.33;;;;;;;31.05;66.53;100591.83;1708322;83;20950;-85
2021/06/16 08:38:18;;;;;;;6.03;2.98;;;;;;;30.75;68.22;100593.63;1709397;83;20966;-84
2021/06/16 08:40:44;;;;;;;5.72;3.15;;;;;;;30.34;70.12;100603.72;1709200;83;21066;-84
2021/06/16 08:43:13;;;;;;;7.90;3.02;;;;;;;29.78;75.05;100603.14;1714052;83;21005;-84
2021/06/16 08:45:41;;;;;;;13.68;3.12;;;;;;;29.50;82.00;100598.80;1708150;84;20996;-84
2021/06/16 08:48:08;;;;;;;5.10;3.10;;;;;;;29.34;83.70;100600.52;1708064;83;21010;-83
2021/06/16 08:50:36;;;;;;;8.28;3.02;;;;;;;29.46;92.20;100595.22;1708406;84;21489;-84
2021/06/16 08:53:03;;;;;;;6.40;3.30;;;;;;;29.59;86.40;100595.08;1708272;84;21526;-84
2021/06/16 08:55:29;;;;;;;11.38;4.00;;;;;;;29.30;84.69;100606.05;1709131;83;21030;-84
2021/06/16 08:57:55;;;;;;;11.22;3.83;;;;;;;28.92;85.58;100602.59;1708353;84;21683;-84
2021/06/16 09:00:23;;;;;;;9.08;3.95;;;;;;;28.60;90.13;100602.92;1708092;84;20986;-84
2021/06/16 09:02:50;;;;;;;7.78;3.17;;;;;;;28.34;93.42;100603.83;1708350;84;21509;-84
2021/06/16 09:05:16;;;;;;;5.90;3.52;;;;;;;28.29;96.23;100595.25;1708252;84;20978;-84
2021/06/16 09:07:45;;;;;;;5.65;2.60;;;;;;;28.14;95.02;100596.28;1705166;82;20990;-84
2021/06/16 09:10:20;;;;;;;5.87;2.72;;;;;;;27.75;98.31;100599.37;1702698;84;21213;-85
2021/06/16 09:12:57;;;;;;;7.55;3.12;;;;;;;27.49;100.00;100604.38;1698490;84;21022;-84
2021/06/16 09:15:28;;;;;;;6.87;3.12;;;;;;;27.43;100.00;100601.72;1702767;84;21007;-85
2021/06/16 09:18:09;;;;;;;8.25;3.70;;;;;;;27.71;100.00;100606.83;1702945;84;20992;-84
2021/06/16 09:20:43;;;;;;;8.55;3.17;;;;;;;27.89;100.00;100602.35;1703023;84;21518;-83
2021/06/16 09:23:28;;;;;;;10.98;3.10;;;;;;;27.66;100.00;100607.97;1702651;84;21269;-83
2021/06/16 09:26:11;;;;;;;6.67;3.08;;;;;;;27.74;100.00;100601.35;1703025;84;21481;-83
2021/06/16 09:28:41;;;;;;;;;;;;;;;27.87;100.00;100597.77;1560809;91;21669;-84
2021/06/16 09:31:11;;;;;;;7.33;3.30;;;;;;;28.04;100.00;100599.95;1558407;92;20510;-84
2021/06/16 09:33:38;;;;;;;6.92;2.65;;;;;;;28.00;100.00;100610.20;1558423;92;21040;-84
2021/06/16 09:36:15;;;;;;;5.22;3.22;;;;;;;27.75;100.00;100619.55;1558575;92;21177;-84
2021/06/16 09:38:53;;;;;;;9.43;3.12;;;;;;;27.48;100.00;100624.94;1545547;92;21679;-84
2021/06/16 09:41:23;;;;;;;8.80;3.15;;;;;;;27.26;100.00;100628.75;1494791;94;20986;-84
2021/06/16 09:43:56;;;;;;;4.00;2.58;;;;;;;27.29;100.00;100632.16;1513629;94;21082;-85
2021/06/16 09:46:21;;;;;;;4.83;2.50;;;;;;;27.44;100.00;100637.31;1513417;93;21169;-84
2021/06/16 09:48:49;;;;;;;4.60;2.62;;;;;;;27.50;100.00;100636.41;1513736;94;21128;-84
2021/06/16 09:51:32;;;;;;;3.55;2.20;;;;;;;27.56;100.00;100640.45;1513473;94;21050;-84
2021/06/16 09:54:15;;;;;;;4.70;2.20;;;;;;;27.64;100.00;100636.61;1513515;93;21038;-85
2021/06/16 09:57:03;;;;;;;6.78;2.10;;;;;;;27.68;100.00;100628.34;1513194;94;21126;-86
2021/06/16 09:59:44;;;;;;;2.15;1.72;;;;;;;27.58;100.00;100637.52;1513471;93;21034;-84
2021/06/16 10:02:27;;;;;;;5.47;1.90;;;;;;;27.53;100.00;100643.41;1512515;94;21348;-84
2021/06/16 10:07:34;;;;;;;5.70;1.70;;;;;;;27.55;100.00;100642.42;1513296;93;21082;-84
2021/06/16 10:10:08;;;;;;;3.25;1.75;;;;;;;27.58;100.00;100643.06;1488408;96;21122;-84
2021/06/16 10:12:41;;;;;;;3.17;1.70;;;;;;;27.61;100.00;100643.69;1509735;94;21146;-85
2021/06/16 10:15:14;;;;;;;3.70;1.90;;;;;;;27.59;100.00;100639.14;1507580;95;22217;-85
2021/06/16 10:17:42;;;;;;;3.77;1.90;;;;;;;27.46;100.00;100605.12;1509492;94;21137;-85
2021/06/16 10:20:11;;;;;;;3.02;1.98;;;;;;;27.77;100.00;100635.81;1509759;94;21128;-85
2021/06/16 10:22:37;;;;;;;4.47;2.25;;;;;;;27.84;100.00;100631.77;1509647;94;21062;-84
2021/06/16 10:25:05;;;;;;;10.18;3.33;;;;;;;27.91;100.00;100632.43;1572929;89;21529;-85
2021/06/16 10:27:42;;;;;;;6.22;2.83;;;;;;;27.93;100.00;100638.41;1654482;86;22019;-85
2021/06/16 10:30:13;;;;;;;6.12;2.20;;;;;;;27.92;100.00;100629.89;1635800;87;21102;-85
2021/06/16 10:32:46;;;;;;;6.58;2.35;;;;;;;27.92;100.00;100637.61;1635895;87;21194;-85
2021/06/16 10:35:39;;;;;;;7.85;1.80;;;;;;;27.98;100.00;100638.88;1633526;87;21035;-85
2021/06/16 10:38:14;;;;;;;3.80;1.50;;;;;;;28.05;100.00;100650.02;1635217;87;21063;-85
2021/06/16 10:40:54;;;;;;;4.83;1.75;;;;;;;28.14;100.00;100649.73;1633502;87;21088;-86
2021/06/16 10:43:23;;;;;;;3.42;2.02;;;;;;;28.29;100.00;100646.53;1576838;89;21571;-86
2021/06/16 10:45:59;;;;;;;8.15;2.02;;;;;;;28.40;100.00;100648.84;1578173;91;21451;-86
2021/06/16 10:48:59;;;;;;;3.47;1.95;;;;;;;28.49;100.00;100653.52;1560618;91;21126;-86
2021/06/16 10:51:41;;;;;;;7.37;2.30;;;;;;;28.42;100.00;100659.59;1624923;88;21518;-86
2021/06/16 10:54:21;;;;;;;4.37;2.30;;;;;;;28.38;100.00;100653.95;1547802;92;21608;-85
2021/06/16 10:56:55;;;;;;;8.00;2.75;;;;;;;28.31;100.00;100642.80;1570128;90;21672;-86
2021/06/16 10:59:47;;;;;;;5.15;2.30;;;;;;;28.38;100.00;100634.55;1518442;93;21095;-86
2021/06/16 11:02:17;;;;;;;4.10;2.85;;;;;;;28.48;100.00;100642.81;1509395;95;21153;-86
2021/06/16 11:04:45;;;;;;;8.48;3.58;;;;;;;28.55;100.00;100635.94;1509906;94;21082;-86
2021/06/16 11:07:36;;;;;;;5.70;3.40;;;;;;;28.73;100.00;100640.27;1524883;94;21193;-86
2021/06/16 11:10:05;;;;;;;10.98;4.08;;;;;;;28.90;100.00;100629.12;1509962;95;21086;-86
2021/06/16 11:12:43;;;;;;;10.82;3.52;;;;;;;29.00;100.00;100628.39;1510031;95;21590;-86
2021/06/16 11:15:26;;;;;;;12.20;3.47;;;;;;;29.16;100.00;100625.39;1510163;95;21531;-86
2021/06/16 11:17:54;;;;;;;7.55;3.40;;;;;;;29.16;100.00;100626.77;1510121;95;21621;-86
2021/06/16 11:20:36;;;;;;;8.60;4.08;;;;;;;29.29;100.00;100626.65;1510105;95;22138;-86
2021/06/16 11:23:05;;;;;;;9.93;4.05;;;;;;;29.51;100.00;100617.08;1509855;95;21058;-86
2021/06/16 11:25:39;;;;;;;9.98;4.30;;;;;;;29.61;100.00;100606.60;1510099;95;21066;-87
2021/06/16 11:28:18;;;;;;;7.05;3.30;;;;;;;29.60;100.00;100608.59;1491757;96;21102;-87
2021/06/16 11:30:58;;;;;;;6.85;2.67;;;;;;;29.69;100.00;100605.48;1467762;97;21112;-86
2021/06/16 11:33:32;;;;;;;4.35;2.17;;;;;;;29.42;100.00;100602.95;1503679;94;21199;-85
2021/06/16 11:36:12;;;;;;;5.03;2.10;;;;;;;29.39;100.00;100600.95;1458670;98;21633;-87
2021/06/16 11:38:44;;;;;;;4.72;2.20;;;;;;;29.55;100.00;100597.05;1458817;98;21598;-86
2021/06/16 11:41:17;;;;;;;9.75;2.40;;;;;;;29.92;100.00;100596.05;1484190;96;21676;-86
2021/06/16 11:43:48;;;;;;;4.95;2.20;;;;;;;30.11;100.00;100590.14;1494188;96;21266;-88
2021/06/16 11:46:31;;;;;;;7.12;2.40;;;;;;;30.44;100.00;100585.45;1494163;96;21288;-90
2021/06/16 11:49:07;;;;;;;2.77;1.62;;;;;;;30.67;100.00;100576.13;1494344;96;21573;-88
2021/06/16 11:51:51;;;;;;;2.85;1.70;;;;;;;30.75;90.06;100580.50;1518592;93;21128;-89
2021/06/16 11:54:29;;;;;;;3.10;1.55;;;;;;;30.41;89.11;100582.86;1514130;93;21456;-88
2021/06/16 11:57:05;;;;;;;4.53;1.87;;;;;;;30.30;93.12;100580.09;1461454;97;21106;-88
2021/06/16 11:59:52;;;;;;;3.75;2.00;;;;;;;30.34;93.60;100584.26;1486260;96;21232;-89
2021/06/16 12:02:26;;;;;;;6.17;2.20;;;;;;;30.18;85.94;100583.79;1486565;96;21141;-87
2021/06/16 12:05:09;;;;;;;6.33;1.70;;;;;;;29.83;88.94;100581.93;1425873;100;21130;-87
2021/06/16 12:07:48;;;;;;;5.15;1.80;;;;;;;29.63;95.00;100582.84;1423377;100;21271;-88
2021/06/16 12:10:21;;;;;;;4.67;1.72;;;;;;;29.74;93.03;100577.91;1408848;101;21214;-88
2021/06/16 12:15:31;;;;;;;12.03;2.60;;;;;;;30.06;89.83;100578.00;1333782;106;21129;-88
2021/06/16 12:18:10;;;;;;;7.08;2.20;;;;;;;29.92;85.97;100573.83;1333633;107;21197;-87
2021/06/16 12:20:48;;;;;;;12.43;2.87;;;;;;;29.85;87.64;100577.35;1335534;106;20980;-87
2021/06/16 12:23:37;;;;;;;4.10;1.45;;;;;;;30.02;88.75;100575.22;1341302;107;21095;-88
2021/06/16 12:26:21;;;;;;;3.42;1.40;;;;;;;29.91;72.42;100584.72;1380215;103;21630;-88
2021/06/16 12:28:54;;;;;;;5.53;1.30;;;;;;;29.70;72.04;100581.27;1376020;103;21185;-86
2021/06/16 12:31:30;;;;;;;6.17;1.37;;;;;;;29.70;71.14;100585.44;1379389;102;21610;-86
2021/06/16 12:36:31;;;;;;;4.55;1.40;;;;;;;29.98;70.53;100580.59;1358271;105;21080;-87
2021/06/16 12:39:16;;;;;;;5.43;1.60;;;;;;;29.93;69.22;100583.74;1360996;104;21142;-87
2021/06/16 12:41:53;;;;;;;5.37;1.20;;;;;;;29.83;68.34;100586.70;1366051;103;21071;-86
2021/06/16 12:44:27;;;;;;;3.77;1.20;;;;;;;29.64;69.13;100580.85;1366037;105;21128;-87
2021/06/16 12:47:03;;;;;;;3.02;1.00;;;;;;;29.79;65.11;100583.88;1325404;108;21217;-87
2021/06/16 12:49:45;;;;;;;0.95;0.85;;;;;;;29.96;58.11;100587.91;1308843;108;21107;-87
2021/06/16 12:52:15;;;;;;;1.12;0.88;;;;;;;29.82;51.50;100585.87;1325265;108;21352;-86
2021/06/16 12:54:46;;;;;;;2.42;0.90;;;;;;;29.75;55.07;100584.47;1325036;108;21180;-85
2021/06/16 12:57:17;;;;;;;1.90;1.00;;;;;;;30.01;60.79;100585.36;1320217;108;21758;-86
2021/06/16 12:59:53;;;;;;;2.55;1.20;;;;;;;30.13;61.49;100582.81;1308341;109;21680;-85
2021/06/16 13:02:35;;;;;;;2.90;1.40;;;;;;;30.23;65.31;100575.89;1329200;106;21629;-85